createdAt,value
2017-10-08T00:00:05.424Z,68.40
2017-10-08T00:02:34.599Z,49.45
2017-10-08T00:05:03.083Z,62.30
2017-10-08T00:07:31.076Z,50.47
2017-10-08T00:09:58.623Z,65.80
2017-10-08T00:12:26.500Z,50.65
2017-10-08T00:14:55.066Z,65.25
2017-10-08T00:17:22.663Z,51.80
2017-10-08T00:19:50.194Z,50.65
2017-10-08T00:22:18.474Z,58.67
2017-10-08T00:24:46.044Z,56.50
2017-10-08T00:27:14.192Z,55.20
2017-10-08T00:29:43.393Z,64.60
2017-10-08T00:32:11.898Z,65.50
2017-10-08T00:34:40.161Z,63.57
2017-10-08T00:37:07.737Z,70.00
2017-10-08T00:39:35.272Z,55.07
2017-10-08T00:42:03.567Z,62.33
2017-10-08T00:44:31.088Z,57.70
2017-10-08T00:46:58.621Z,68.63
2017-10-08T00:49:26.275Z,59.70
2017-10-08T00:51:53.802Z,57.63
2017-10-08T00:54:21.343Z,52.03
2017-10-08T00:56:49.633Z,53.00
2017-10-08T00:59:17.231Z,50.77
2017-10-08T01:01:45.103Z,58.13
2017-10-08T01:04:13.399Z,54.63
2017-10-08T01:06:42.128Z,50.53
2017-10-08T01:09:09.776Z,49.50
2017-10-08T01:11:38.081Z,58.97
2017-10-08T01:14:05.958Z,53.37
2017-10-08T01:16:35.538Z,68.57
2017-10-08T01:19:03.296Z,54.87
2017-10-08T01:21:30.856Z,52.57
2017-10-08T01:23:58.418Z,54.20
2017-10-08T01:26:25.962Z,51.13
2017-10-08T01:28:54.762Z,56.50
2017-10-08T01:31:22.289Z,50.73
2017-10-08T01:33:49.810Z,49.93
2017-10-08T01:36:17.339Z,55.17
2017-10-08T01:38:45.626Z,47.50
2017-10-08T01:41:13.252Z,50.23
2017-10-08T01:43:41.585Z,52.10
2017-10-08T01:46:09.103Z,53.03
2017-10-08T01:48:37.409Z,49.13
2017-10-08T01:51:04.979Z,54.47
2017-10-08T01:53:32.654Z,42.00
2017-10-08T01:56:00.161Z,44.10
2017-10-08T01:58:28.482Z,47.23
2017-10-08T02:00:56.001Z,36.57
2017-10-08T02:03:24.287Z,43.57
2017-10-08T02:05:52.409Z,44.43
2017-10-08T02:08:20.349Z,38.72
2017-10-08T02:10:47.873Z,48.60
2017-10-08T02:13:16.196Z,39.47
2017-10-08T02:15:43.731Z,44.73
2017-10-08T02:18:11.288Z,50.53
2017-10-08T02:20:39.402Z,39.50
2017-10-08T02:23:06.972Z,46.28
2017-10-08T02:25:35.612Z,47.60
2017-10-08T02:28:03.205Z,44.93
2017-10-08T02:30:31.533Z,49.60
2017-10-08T02:33:00.445Z,46.80
2017-10-08T02:35:27.999Z,39.23
2017-10-08T02:37:55.513Z,38.90
2017-10-08T02:40:23.048Z,40.20
2017-10-08T02:42:50.578Z,40.03
2017-10-08T02:45:18.931Z,46.47
2017-10-08T02:47:46.513Z,41.13
2017-10-08T02:50:14.073Z,39.27
2017-10-08T02:52:41.615Z,42.63
2017-10-08T02:55:09.900Z,39.97
2017-10-08T02:57:37.466Z,48.57
2017-10-08T03:00:04.973Z,45.67
2017-10-08T03:02:32.712Z,37.77
2017-10-08T03:05:00.262Z,55.53
2017-10-08T03:07:27.772Z,60.13
2017-10-08T03:09:55.296Z,46.30
2017-10-08T03:12:23.737Z,50.20
2017-10-08T03:14:51.274Z,54.90
2017-10-08T03:17:19.295Z,55.87
2017-10-08T03:19:46.984Z,46.53
2017-10-08T03:22:14.517Z,61.43
2017-10-08T03:24:42.035Z,59.33
2017-10-08T03:27:10.757Z,42.10
2017-10-08T03:29:38.277Z,56.97
2017-10-08T03:32:06.309Z,51.63
2017-10-08T03:34:33.888Z,49.73
2017-10-08T03:37:01.414Z,46.43
2017-10-08T03:39:28.933Z,46.90
2017-10-08T03:41:57.342Z,53.03
2017-10-08T03:44:25.393Z,49.50
2017-10-08T03:46:53.842Z,49.63
2017-10-08T03:49:21.397Z,59.47
2017-10-08T03:51:48.927Z,45.13
2017-10-08T03:54:17.009Z,56.07
2017-10-08T03:56:45.589Z,45.33
2017-10-08T03:59:13.098Z,37.00
2017-10-08T04:01:40.600Z,50.87
2017-10-08T04:04:08.150Z,48.43
2017-10-08T04:06:35.718Z,49.40
2017-10-08T04:09:04.706Z,51.23
2017-10-08T04:11:33.156Z,48.90
2017-10-08T04:14:00.693Z,63.07
2017-10-08T04:16:28.997Z,50.67
2017-10-08T04:18:56.540Z,46.97
2017-10-08T04:21:25.237Z,48.13
2017-10-08T04:23:52.818Z,52.87
2017-10-08T04:26:20.363Z,50.03
2017-10-08T04:28:48.118Z,50.37
2017-10-08T04:31:16.120Z,57.22
2017-10-08T04:33:44.622Z,52.83
2017-10-08T04:36:12.211Z,52.83
2017-10-08T04:38:39.927Z,45.93
2017-10-08T04:41:07.482Z,44.78
2017-10-08T04:43:35.005Z,46.93
2017-10-08T04:46:02.607Z,47.92
2017-10-08T04:48:30.499Z,51.92
2017-10-08T04:50:58.062Z,46.90
2017-10-08T04:53:25.648Z,47.00
2017-10-08T04:55:54.356Z,54.43
2017-10-08T04:58:21.874Z,43.55
2017-10-08T05:00:49.392Z,52.92
2017-10-08T05:03:16.967Z,55.27
2017-10-08T05:05:45.039Z,50.83
2017-10-08T05:08:12.733Z,55.42
2017-10-08T05:10:41.248Z,62.78
2017-10-08T05:13:09.548Z,51.30
2017-10-08T05:15:37.068Z,62.57
2017-10-08T05:18:05.436Z,54.05
2017-10-08T05:20:32.950Z,53.22
2017-10-08T05:23:00.480Z,55.05
2017-10-08T05:25:28.043Z,54.53
2017-10-08T05:27:55.592Z,57.75
2017-10-08T05:30:23.171Z,52.20
2017-10-08T05:32:51.565Z,49.22
2017-10-08T05:35:19.128Z,55.30
2017-10-08T05:37:46.656Z,55.27
2017-10-08T05:40:14.223Z,64.70
2017-10-08T05:42:41.756Z,54.08
2017-10-08T05:45:09.273Z,63.60
2017-10-08T05:47:36.834Z,50.45
2017-10-08T05:50:04.365Z,48.72
2017-10-08T05:52:31.904Z,56.00
2017-10-08T05:55:00.231Z,46.42
2017-10-08T05:57:27.766Z,65.68
2017-10-08T05:59:55.457Z,65.32
2017-10-08T06:02:23.048Z,57.35
2017-10-08T06:04:51.345Z,58.10
2017-10-08T06:07:19.047Z,49.63
2017-10-08T06:09:46.650Z,53.70
2017-10-08T06:12:16.118Z,48.65
2017-10-08T06:14:43.715Z,45.63
2017-10-08T06:17:12.017Z,59.70
2017-10-08T06:19:39.538Z,51.63
2017-10-08T06:22:07.830Z,52.62
2017-10-08T06:24:36.395Z,50.85
2017-10-08T06:27:04.060Z,59.33
2017-10-08T06:29:32.355Z,58.65
2017-10-08T06:31:59.896Z,66.95
2017-10-08T06:34:27.992Z,65.70
2017-10-08T06:36:55.525Z,52.55
2017-10-08T06:39:23.824Z,59.40
2017-10-08T06:41:51.365Z,56.03
2017-10-08T06:44:20.087Z,53.63
2017-10-08T06:46:47.626Z,59.50
2017-10-08T06:49:16.046Z,62.35
2017-10-08T06:51:43.595Z,54.40
2017-10-08T06:54:11.153Z,54.10
2017-10-08T06:56:38.691Z,50.85
2017-10-08T06:59:06.226Z,55.70
2017-10-08T07:01:33.938Z,49.40
2017-10-08T07:04:01.463Z,52.73
2017-10-08T07:06:30.594Z,43.23
2017-10-08T07:08:58.146Z,52.23
2017-10-08T07:11:26.403Z,50.70
2017-10-08T07:13:53.916Z,51.60
2017-10-08T07:16:21.457Z,45.80
2017-10-08T07:18:48.968Z,44.17
2017-10-08T07:21:17.795Z,45.63
2017-10-08T07:23:45.335Z,48.23
2017-10-08T07:26:13.267Z,40.27
2017-10-08T07:28:40.791Z,44.77
2017-10-08T07:31:10.344Z,41.63
2017-10-08T07:33:39.397Z,38.95
2017-10-08T07:36:06.959Z,42.00
2017-10-08T07:38:34.495Z,33.00
2017-10-08T07:41:02.031Z,43.97
2017-10-08T07:43:30.315Z,38.30
2017-10-08T07:45:57.919Z,42.27
2017-10-08T07:48:26.273Z,31.37
2017-10-08T07:50:53.808Z,30.43
2017-10-08T07:53:21.360Z,34.57
2017-10-08T07:55:49.640Z,34.03
2017-10-08T07:58:17.176Z,35.50
2017-10-08T08:00:44.725Z,27.43
2017-10-08T08:03:12.251Z,27.20
2017-10-08T08:05:39.781Z,28.47
2017-10-08T08:08:08.061Z,25.40
2017-10-08T08:10:35.639Z,29.33
2017-10-08T08:13:03.185Z,26.77
2017-10-08T08:15:30.761Z,24.70
2017-10-08T08:17:58.307Z,29.57
2017-10-08T08:20:26.540Z,22.00
2017-10-08T08:22:54.072Z,26.73
2017-10-08T08:25:22.386Z,24.83
2017-10-08T08:27:50.514Z,20.90
2017-10-08T08:30:18.165Z,23.40
2017-10-08T08:32:45.719Z,22.93
2017-10-08T08:35:14.474Z,25.53
2017-10-08T08:37:43.435Z,38.20
2017-10-08T08:40:11.575Z,30.77
2017-10-08T08:42:39.506Z,23.40
2017-10-08T08:45:07.358Z,23.03
2017-10-08T08:47:34.904Z,25.33
2017-10-08T08:50:03.272Z,20.67
2017-10-08T08:52:31.241Z,21.83
2017-10-08T08:54:58.856Z,23.40
2017-10-08T08:57:26.414Z,22.77
2017-10-08T08:59:53.998Z,29.17
2017-10-08T09:02:21.521Z,18.90
2017-10-08T09:04:49.827Z,19.27
2017-10-08T09:07:18.288Z,22.27
2017-10-08T09:09:45.796Z,18.33
2017-10-08T09:12:13.320Z,19.00
2017-10-08T09:14:43.164Z,15.43
2017-10-08T09:17:11.350Z,16.83
2017-10-08T09:19:38.897Z,17.77
2017-10-08T09:22:10.606Z,15.10
2017-10-08T09:24:38.661Z,13.97
2017-10-08T09:27:06.960Z,14.13
2017-10-08T09:29:34.497Z,14.20
2017-10-08T09:32:02.790Z,13.07
2017-10-08T09:34:31.117Z,13.60
2017-10-08T09:36:58.656Z,12.50
2017-10-08T09:39:26.224Z,12.97
2017-10-08T09:41:53.797Z,13.53
2017-10-08T09:44:21.346Z,12.00
2017-10-08T09:46:48.904Z,11.30
2017-10-08T09:49:16.558Z,10.90
2017-10-08T09:51:44.156Z,6.17
2017-10-08T09:54:11.701Z,12.13
2017-10-08T09:56:39.247Z,8.57
2017-10-08T09:59:07.168Z,8.13
2017-10-08T10:01:35.012Z,7.93
2017-10-08T10:04:02.705Z,7.37
2017-10-08T10:06:30.644Z,7.50
2017-10-08T10:08:58.220Z,7.37
2017-10-08T10:11:26.507Z,6.20
2017-10-08T10:13:54.539Z,7.93
2017-10-08T10:16:22.184Z,7.50
2017-10-08T10:18:49.769Z,8.23
2017-10-08T10:21:17.273Z,8.20
2017-10-08T10:23:44.820Z,8.00
2017-10-08T10:26:13.088Z,8.40
2017-10-08T10:28:41.745Z,9.10
2017-10-08T10:31:09.550Z,8.03
2017-10-08T10:33:37.080Z,9.90
2017-10-08T10:36:04.593Z,8.60
2017-10-08T10:38:32.120Z,9.27
2017-10-08T10:41:00.441Z,9.40
2017-10-08T10:43:28.397Z,8.83
2017-10-08T10:45:56.843Z,8.03
2017-10-08T10:48:25.355Z,5.97
2017-10-08T10:50:53.354Z,7.40
2017-10-08T10:53:20.963Z,8.83
2017-10-08T10:55:49.280Z,8.07
2017-10-08T10:58:17.281Z,11.10
2017-10-08T11:00:45.460Z,7.10
2017-10-08T11:03:14.628Z,6.73
2017-10-08T11:05:42.190Z,6.10
2017-10-08T11:08:10.244Z,5.60
2017-10-08T11:10:37.767Z,6.07
2017-10-08T11:13:06.071Z,6.07
2017-10-08T11:15:33.630Z,7.80
2017-10-08T11:18:01.197Z,5.83
2017-10-08T11:20:28.739Z,5.83
2017-10-08T11:22:56.246Z,6.70
2017-10-08T11:25:25.217Z,5.83
2017-10-08T11:27:53.175Z,6.00
2017-10-08T11:30:20.683Z,5.30
2017-10-08T11:32:48.188Z,5.63
2017-10-08T11:35:15.729Z,6.27
2017-10-08T11:37:43.242Z,6.20
2017-10-08T11:40:10.754Z,7.80
2017-10-08T11:42:38.290Z,11.03
2017-10-08T11:45:07.506Z,13.83
2017-10-08T11:47:35.079Z,7.13
2017-10-08T11:50:02.825Z,8.33
2017-10-08T11:52:30.313Z,8.90
2017-10-08T11:54:58.905Z,6.60
2017-10-08T11:57:26.516Z,8.30
2017-10-08T11:59:54.789Z,8.43
2017-10-08T12:02:23.219Z,6.97
2017-10-08T12:04:50.784Z,8.53
2017-10-08T12:07:18.336Z,7.83
2017-10-08T12:09:47.114Z,7.53
2017-10-08T12:12:14.720Z,6.97
2017-10-08T12:14:42.235Z,6.67
2017-10-08T12:17:10.085Z,7.77
2017-10-08T12:19:37.785Z,6.10
2017-10-08T12:22:05.553Z,6.80
2017-10-08T12:24:33.100Z,7.00
2017-10-08T12:27:00.659Z,6.37
2017-10-08T12:29:28.209Z,3.53
2017-10-08T12:31:56.238Z,4.00
2017-10-08T12:34:24.562Z,4.43
2017-10-08T12:36:52.135Z,4.97
2017-10-08T12:39:19.798Z,3.97
2017-10-08T12:41:47.353Z,3.33
2017-10-08T12:44:15.544Z,3.30
2017-10-08T12:46:43.080Z,2.57
2017-10-08T12:49:10.585Z,2.20
2017-10-08T12:51:38.907Z,2.33
2017-10-08T12:54:06.426Z,2.60
2017-10-08T12:56:34.808Z,3.97
2017-10-08T12:59:03.080Z,3.10
2017-10-08T13:01:31.368Z,2.97
2017-10-08T13:03:58.900Z,2.70
2017-10-08T13:06:26.427Z,3.50
2017-10-08T13:08:54.690Z,3.10
2017-10-08T13:11:22.227Z,2.70
2017-10-08T13:13:49.740Z,2.90
2017-10-08T13:16:17.254Z,2.90
2017-10-08T13:18:44.798Z,2.20
2017-10-08T13:21:12.317Z,2.70
2017-10-08T13:23:40.321Z,2.53
2017-10-08T13:26:07.881Z,2.90
2017-10-08T13:28:36.470Z,3.60
2017-10-08T13:31:04.360Z,3.40
2017-10-08T13:33:32.826Z,4.17
2017-10-08T13:36:00.474Z,3.70
2017-10-08T13:38:28.271Z,2.20
2017-10-08T13:40:56.042Z,3.60
2017-10-08T13:43:23.690Z,2.23
2017-10-08T13:45:51.234Z,1.80
2017-10-08T13:48:19.078Z,2.53
2017-10-08T13:50:46.864Z,4.00
2017-10-08T13:53:15.131Z,2.07
2017-10-08T13:55:43.420Z,1.80
2017-10-08T13:58:12.441Z,2.00
2017-10-08T14:00:39.961Z,1.70
2017-10-08T14:03:08.285Z,10.23
2017-10-08T14:05:35.881Z,2.40
2017-10-08T14:08:04.776Z,1.90
2017-10-08T14:10:32.632Z,2.90
2017-10-08T14:13:00.933Z,1.90
2017-10-08T14:15:29.324Z,2.23
2017-10-08T14:17:57.731Z,1.77
2017-10-08T14:20:25.248Z,2.53
2017-10-08T14:22:53.525Z,2.30
2017-10-08T14:25:21.899Z,2.87
2017-10-08T14:27:50.180Z,1.90
2017-10-08T14:30:19.352Z,2.90
2017-10-08T14:32:47.249Z,1.97
2017-10-08T14:35:15.617Z,1.80
2017-10-08T14:37:43.196Z,2.20
2017-10-08T14:40:11.502Z,2.13
2017-10-08T14:42:39.025Z,2.60
2017-10-08T14:45:08.311Z,2.80
2017-10-08T14:47:38.408Z,2.43
2017-10-08T14:50:10.654Z,1.93
2017-10-08T14:52:40.289Z,1.77
2017-10-08T14:55:08.848Z,4.20
2017-10-08T14:57:37.125Z,4.50
2017-10-08T15:00:04.812Z,4.80
2017-10-08T15:02:33.989Z,2.10
2017-10-08T15:05:03.620Z,2.67
2017-10-08T15:07:31.209Z,1.97
2017-10-08T15:09:58.843Z,3.17
2017-10-08T15:12:26.495Z,2.67
2017-10-08T15:14:55.983Z,3.13
2017-10-08T15:17:24.791Z,3.77
2017-10-08T15:19:52.356Z,2.40
2017-10-08T15:22:20.412Z,1.97
2017-10-08T15:24:48.497Z,1.70
2017-10-08T15:27:16.098Z,2.13
2017-10-08T15:29:44.610Z,3.40
2017-10-08T15:32:12.383Z,1.57
2017-10-08T15:34:41.181Z,6.23
2017-10-08T15:37:08.864Z,2.93
2017-10-08T15:39:37.437Z,3.80
2017-10-08T15:42:05.605Z,2.70
2017-10-08T15:44:33.262Z,1.90
2017-10-08T15:47:01.473Z,2.80
2017-10-08T15:49:28.995Z,2.10
2017-10-08T15:51:56.591Z,3.80
2017-10-08T15:54:24.868Z,2.40
2017-10-08T15:56:53.205Z,1.83
2017-10-08T15:59:21.653Z,1.70
2017-10-08T16:01:49.256Z,3.77
2017-10-08T16:04:17.383Z,3.83
2017-10-08T16:06:46.377Z,3.27
2017-10-08T16:09:15.201Z,2.30
2017-10-08T16:11:43.482Z,2.73
2017-10-08T16:14:11.239Z,4.63
2017-10-08T16:16:39.215Z,3.90
2017-10-08T16:19:08.117Z,4.27
2017-10-08T16:21:35.726Z,1.53
2017-10-08T16:24:03.288Z,2.83
2017-10-08T16:26:30.796Z,3.30
2017-10-08T16:28:58.409Z,3.07
2017-10-08T16:31:26.189Z,2.53
2017-10-08T16:33:53.717Z,3.20
2017-10-08T16:36:22.052Z,2.90
2017-10-08T16:38:49.608Z,2.60
2017-10-08T16:41:17.643Z,3.60
2017-10-08T16:43:46.371Z,3.30
2017-10-08T16:46:15.214Z,3.47
2017-10-08T16:48:42.777Z,2.27
2017-10-08T16:51:11.612Z,3.37
2017-10-08T16:53:40.746Z,2.60
2017-10-08T16:56:10.785Z,4.20
2017-10-08T16:58:38.326Z,3.07
2017-10-08T17:01:08.189Z,4.77
2017-10-08T17:03:37.210Z,3.37
2017-10-08T17:06:05.280Z,3.20
2017-10-08T17:08:34.254Z,3.73
2017-10-08T17:11:02.950Z,2.30
2017-10-08T17:13:30.536Z,3.90
2017-10-08T17:15:58.812Z,2.83
2017-10-08T17:18:28.816Z,3.23
2017-10-08T17:20:57.048Z,6.90
2017-10-08T17:23:25.126Z,2.90
2017-10-08T17:25:52.918Z,3.57
2017-10-08T17:28:20.561Z,3.00
2017-10-08T17:30:48.725Z,6.30
2017-10-08T17:33:19.825Z,2.63
2017-10-08T17:35:49.755Z,2.27
2017-10-08T17:38:17.397Z,2.97
2017-10-08T17:43:29.777Z,3.93
2017-10-08T17:45:58.245Z,3.40
2017-10-08T17:48:29.343Z,3.13
2017-10-08T17:51:01.729Z,3.67
2017-10-08T17:53:29.531Z,4.03
2017-10-08T17:55:57.926Z,3.03
2017-10-08T17:58:27.824Z,3.90
2017-10-08T18:00:55.668Z,4.63
2017-10-08T18:03:23.776Z,5.33
2017-10-08T18:05:52.215Z,5.30
2017-10-08T18:08:21.384Z,3.90
2017-10-08T18:10:49.215Z,3.40
2017-10-08T18:13:17.593Z,6.40
2017-10-08T18:15:45.628Z,3.80
2017-10-08T18:18:16.736Z,4.57
2017-10-08T18:20:45.030Z,4.50
2017-10-08T18:23:13.493Z,8.37
2017-10-08T18:25:43.008Z,3.80
2017-10-08T18:28:13.196Z,6.50
2017-10-08T18:30:41.778Z,3.17
2017-10-08T18:33:09.463Z,3.40
2017-10-08T18:35:37.586Z,3.80
2017-10-08T18:38:09.228Z,3.50
2017-10-08T18:40:37.544Z,3.40
2017-10-08T18:43:06.191Z,4.27
2017-10-08T18:45:46.111Z,4.70
2017-10-08T18:48:13.630Z,4.60
2017-10-08T18:50:41.147Z,4.87
2017-10-08T18:53:08.728Z,4.00
2017-10-08T18:55:36.240Z,5.47
2017-10-08T18:58:03.738Z,4.10
2017-10-08T19:14:12.940Z,4.10
2017-10-08T19:16:41.740Z,7.57
2017-10-08T19:19:09.959Z,4.40
2017-10-08T19:21:40.414Z,4.50
2017-10-08T19:24:08.147Z,4.57
2017-10-08T19:26:38.640Z,5.53
2017-10-08T19:29:10.109Z,4.60
2017-10-08T19:31:41.383Z,5.20
2017-10-08T19:34:12.028Z,4.50
2017-10-08T19:36:43.594Z,4.93
2017-10-08T19:39:16.462Z,4.93
2017-10-08T19:41:51.893Z,7.97
2017-10-08T19:44:21.213Z,5.33
2017-10-08T19:46:51.596Z,5.10
2017-10-08T19:49:20.108Z,6.37
2017-10-08T19:51:47.699Z,4.60
2017-10-08T19:54:16.028Z,5.90
2017-10-08T19:56:45.357Z,5.20
2017-10-08T19:59:15.749Z,4.93
2017-10-08T20:01:44.068Z,4.53
2017-10-08T20:04:16.609Z,4.90
2017-10-08T20:06:48.747Z,6.37
2017-10-08T20:09:20.500Z,4.40
2017-10-08T20:11:50.992Z,6.90
2017-10-08T20:14:20.317Z,6.30
2017-10-08T20:16:48.769Z,5.20
2017-10-08T20:19:18.385Z,8.10
2017-10-08T20:21:48.384Z,7.73
2017-10-08T20:24:16.550Z,8.17
2017-10-08T20:26:45.397Z,9.50
2017-10-08T20:29:14.887Z,7.10
2017-10-08T20:31:43.762Z,8.70
2017-10-08T20:34:11.353Z,7.00
2017-10-08T20:36:38.857Z,8.20
2017-10-08T20:39:06.378Z,12.00
2017-10-08T20:41:35.921Z,9.73
2017-10-08T20:44:05.129Z,9.87
2017-10-08T20:46:34.703Z,9.13
2017-10-08T20:49:04.746Z,11.93
2017-10-08T20:51:32.661Z,8.17
2017-10-08T20:54:01.875Z,9.67
2017-10-08T20:56:33.105Z,10.43
2017-10-08T20:59:02.275Z,10.43
2017-10-08T21:01:32.537Z,10.77
2017-10-08T21:04:00.868Z,10.47
2017-10-08T21:06:30.018Z,12.37
2017-10-08T21:08:59.195Z,12.87
2017-10-08T21:11:26.808Z,15.27
2017-10-08T21:13:54.333Z,13.27
2017-10-08T21:16:21.863Z,12.90
2017-10-08T21:18:51.824Z,12.30
2017-10-08T21:21:20.433Z,13.70
2017-10-08T21:23:48.159Z,11.67
2017-10-08T21:26:16.444Z,14.17
2017-10-08T21:28:45.525Z,17.43
2017-10-08T21:31:13.853Z,18.77
2017-10-08T21:33:42.700Z,18.90
2017-10-08T21:36:10.964Z,20.47
2017-10-08T21:38:39.496Z,14.43
2017-10-08T21:41:07.355Z,13.50
2017-10-08T21:43:34.899Z,16.00
2017-10-08T21:46:03.350Z,16.70
2017-10-08T21:48:31.648Z,20.30
2017-10-08T21:50:59.190Z,17.83
2017-10-08T21:53:27.483Z,16.50
2017-10-08T21:55:55.946Z,20.30
2017-10-08T21:58:24.271Z,23.00
2017-10-08T22:00:51.902Z,17.50
2017-10-08T22:03:19.650Z,18.47
2017-10-08T22:05:47.963Z,16.60
2017-10-08T22:08:15.500Z,15.30
2017-10-08T22:10:43.389Z,20.80
2017-10-08T22:13:10.997Z,18.73
2017-10-08T22:15:39.295Z,19.00
2017-10-08T22:18:08.388Z,17.30
2017-10-08T22:20:37.124Z,17.90
2017-10-08T22:23:04.738Z,16.43
2017-10-08T22:25:33.031Z,21.40
2017-10-08T22:28:00.587Z,20.70
2017-10-08T22:30:28.111Z,21.90
2017-10-08T22:32:55.778Z,20.83
2017-10-08T22:35:23.331Z,21.83
2017-10-08T22:37:50.863Z,22.33
2017-10-08T22:40:18.383Z,20.57
2017-10-08T22:42:46.175Z,21.00
2017-10-08T22:45:14.523Z,20.10
2017-10-08T22:47:42.041Z,20.90
2017-10-08T22:50:09.921Z,19.87
2017-10-08T22:52:37.583Z,20.70
2017-10-08T22:55:05.111Z,20.90
2017-10-08T22:57:33.169Z,19.70
2017-10-08T23:00:00.720Z,19.70
2017-10-08T23:02:28.225Z,20.07
2017-10-08T23:04:55.761Z,20.43
2017-10-08T23:07:23.599Z,24.60
2017-10-08T23:09:52.063Z,18.80
2017-10-08T23:12:19.772Z,19.67
2017-10-08T23:14:47.293Z,19.20
2017-10-08T23:17:14.808Z,18.07
2017-10-08T23:19:43.301Z,18.63
2017-10-08T23:22:10.902Z,22.40
2017-10-08T23:24:38.419Z,19.80
2017-10-08T23:27:06.576Z,18.70
2017-10-08T23:29:34.107Z,21.30
2017-10-08T23:32:01.621Z,22.87
2017-10-08T23:34:29.427Z,20.07
2017-10-08T23:36:56.937Z,21.30
2017-10-08T23:39:24.440Z,20.73
2017-10-08T23:41:52.067Z,22.50
2017-10-08T23:44:20.699Z,22.23
2017-10-08T23:46:48.907Z,19.00
2017-10-08T23:49:16.463Z,21.43
2017-10-08T23:51:44.015Z,21.13
2017-10-08T23:54:11.530Z,24.90
2017-10-08T23:56:39.087Z,21.33
2017-10-08T23:59:06.606Z,24.13
